createdAt,value
2023-01-25T00:00:00.207Z,9.70
2023-01-25T00:00:11.063Z,9.80
2023-01-25T00:00:22.771Z,10.00
2023-01-25T00:00:33.585Z,10.10
2023-01-25T00:00:46.778Z,9.90
2023-01-25T00:00:58.527Z,9.70
2023-01-25T00:01:10.292Z,10.20
2023-01-25T00:01:22.724Z,10.10
2023-01-25T00:01:35.159Z,10.80
2023-01-25T00:01:47.721Z,10.70
2023-01-25T00:02:00.364Z,11.20
2023-01-25T00:02:11.255Z,11.80
2023-01-25T00:02:23.797Z,11.10
2023-01-25T00:02:35.631Z,9.40
2023-01-25T00:02:47.512Z,9.40
2023-01-25T00:02:58.401Z,10.40
2023-01-25T00:03:09.273Z,11.70
2023-01-25T00:03:21.747Z,11.80
2023-01-25T00:03:34.252Z,11.50
2023-01-25T00:03:47.248Z,11.60
2023-01-25T00:03:59.711Z,11.70
2023-01-25T00:04:12.178Z,11.50
2023-01-25T00:04:22.974Z,11.40
2023-01-25T00:04:34.917Z,11.60
2023-01-25T00:04:47.384Z,11.60
2023-01-25T00:04:59.144Z,11.10
2023-01-25T00:05:10.120Z,11.30
2023-01-25T00:05:22.668Z,10.10
2023-01-25T00:05:33.473Z,9.90
2023-01-25T00:05:44.453Z,10.00
2023-01-25T00:05:56.219Z,10.80
2023-01-25T00:06:06.998Z,11.50
2023-01-25T00:06:19.479Z,11.50
2023-01-25T00:06:31.921Z,12.10
2023-01-25T00:06:42.718Z,12.30
2023-01-25T00:06:53.473Z,13.20
2023-01-25T00:07:07.240Z,12.50
2023-01-25T00:07:19.717Z,12.80
2023-01-25T00:07:30.492Z,12.40
2023-01-25T00:07:42.720Z,12.10
2023-01-25T00:07:55.428Z,11.80
2023-01-25T00:08:09.166Z,11.10
2023-01-25T00:08:20.018Z,10.40
2023-01-25T00:08:31.922Z,10.80
2023-01-25T00:08:43.668Z,11.60
2023-01-25T00:08:54.531Z,11.60
2023-01-25T00:09:05.324Z,11.70
2023-01-25T00:09:16.099Z,12.30
2023-01-25T00:09:26.844Z,11.60
2023-01-25T00:09:39.040Z,11.40
2023-01-25T00:09:49.769Z,11.20
2023-01-25T00:10:02.258Z,11.20
2023-01-25T00:10:14.812Z,11.10
2023-01-25T00:10:26.779Z,11.50
2023-01-25T00:10:37.612Z,13.00
2023-01-25T00:10:49.839Z,13.80
2023-01-25T00:11:01.589Z,15.70
2023-01-25T00:11:14.551Z,14.70
2023-01-25T00:11:27.004Z,14.30
2023-01-25T00:11:39.242Z,13.80
2023-01-25T00:11:51.700Z,13.20
2023-01-25T00:12:03.439Z,12.60
2023-01-25T00:12:15.180Z,12.10
2023-01-25T00:12:25.970Z,12.00
2023-01-25T00:12:37.727Z,11.80
2023-01-25T00:12:49.477Z,11.60
2023-01-25T00:13:02.180Z,10.90
2023-01-25T00:13:13.019Z,10.80
2023-01-25T00:13:24.709Z,10.80
2023-01-25T00:13:36.429Z,10.60
2023-01-25T00:13:47.175Z,11.10
2023-01-25T00:13:59.615Z,10.70
2023-01-25T00:14:10.412Z,10.20
2023-01-25T00:14:23.615Z,9.80
2023-01-25T00:14:36.088Z,9.90
2023-01-25T00:14:49.087Z,9.30
2023-01-25T00:15:00.814Z,8.40
2023-01-25T00:15:11.619Z,9.00
2023-01-25T00:15:23.338Z,9.30
2023-01-25T00:15:34.112Z,9.90
2023-01-25T00:15:46.549Z,9.70
2023-01-25T00:15:57.320Z,10.50
2023-01-25T00:16:08.137Z,10.10
2023-01-25T00:16:18.982Z,9.70
2023-01-25T00:16:29.763Z,9.30
2023-01-25T00:16:42.290Z,8.50
2023-01-25T00:16:54.638Z,7.80
2023-01-25T00:17:05.461Z,7.30
2023-01-25T00:17:18.170Z,7.90
2023-01-25T00:17:30.430Z,8.10
2023-01-25T00:17:41.217Z,8.90
2023-01-25T00:17:53.653Z,8.20
2023-01-25T00:18:04.481Z,7.70
2023-01-25T00:18:15.282Z,7.50
2023-01-25T00:18:27.040Z,8.00
2023-01-25T00:18:37.815Z,8.20
2023-01-25T00:18:49.572Z,8.30
2023-01-25T00:19:02.074Z,8.70
2023-01-25T00:19:12.943Z,8.40
2023-01-25T00:19:24.704Z,8.40
2023-01-25T00:19:37.430Z,8.50
2023-01-25T00:19:48.220Z,8.70
2023-01-25T00:19:58.993Z,8.60
2023-01-25T00:20:09.775Z,8.20
2023-01-25T00:20:20.558Z,8.10
2023-01-25T00:20:33.753Z,8.30
2023-01-25T00:20:45.513Z,8.70
2023-01-25T00:20:56.268Z,8.40
2023-01-25T00:21:08.498Z,8.40
2023-01-25T00:21:19.271Z,8.00
2023-01-25T00:21:31.992Z,7.70
2023-01-25T00:21:44.763Z,8.20
2023-01-25T00:21:57.011Z,9.20
2023-01-25T00:22:09.493Z,9.20
2023-01-25T00:22:21.230Z,8.40
2023-01-25T00:22:33.688Z,8.50
2023-01-25T00:22:45.432Z,8.70
2023-01-25T00:22:58.182Z,9.20
2023-01-25T00:23:10.684Z,9.20
2023-01-25T00:24:01.413Z,0.00
2023-01-25T00:24:13.224Z,8.10
2023-01-25T00:24:24.987Z,8.90
2023-01-25T00:24:36.753Z,8.80
2023-01-25T00:24:48.714Z,9.10
2023-01-25T00:25:00.445Z,8.70
2023-01-25T00:25:11.213Z,8.90
2023-01-25T00:25:23.390Z,8.60
2023-01-25T00:25:34.127Z,8.60
2023-01-25T00:25:46.585Z,8.40
2023-01-25T00:25:58.798Z,8.50
2023-01-25T00:26:11.353Z,8.90
2023-01-25T00:26:22.124Z,8.40
2023-01-25T00:26:32.866Z,8.00
2023-01-25T00:26:45.302Z,8.00
2023-01-25T00:26:57.538Z,8.10
2023-01-25T00:27:08.313Z,8.20
2023-01-25T00:27:20.754Z,7.90
2023-01-25T00:27:32.986Z,8.10
2023-01-25T00:27:45.464Z,8.20
2023-01-25T00:27:57.246Z,7.90
2023-01-25T00:28:09.001Z,7.50
2023-01-25T00:28:20.708Z,7.70
2023-01-25T00:28:32.964Z,7.70
2023-01-25T00:28:43.741Z,7.50
2023-01-25T00:28:56.243Z,7.40
2023-01-25T00:29:08.692Z,7.60
2023-01-25T00:29:19.456Z,8.10
2023-01-25T00:29:30.235Z,8.10
2023-01-25T00:29:42.850Z,7.90
2023-01-25T00:29:55.352Z,8.20
2023-01-25T00:30:06.093Z,7.80
2023-01-25T00:30:16.931Z,7.30
2023-01-25T00:30:27.701Z,7.60
2023-01-25T00:30:39.918Z,7.80
2023-01-25T00:30:53.632Z,7.40
2023-01-25T00:31:04.362Z,7.00
2023-01-25T00:31:15.265Z,7.80
2023-01-25T00:31:27.127Z,8.10
2023-01-25T00:31:39.560Z,8.40
2023-01-25T00:31:51.461Z,7.70
2023-01-25T00:32:04.135Z,7.70
2023-01-25T00:32:17.332Z,7.70
2023-01-25T00:32:28.231Z,7.60
2023-01-25T00:32:39.128Z,7.50
2023-01-25T00:32:50.933Z,8.00
2023-01-25T00:33:01.691Z,8.00
2023-01-25T00:33:12.475Z,8.50
2023-01-25T00:33:24.182Z,8.50
2023-01-25T00:33:35.973Z,8.50
2023-01-25T00:33:47.795Z,7.90
2023-01-25T00:33:58.554Z,7.10
2023-01-25T00:34:09.381Z,7.30
2023-01-25T00:34:21.151Z,7.30
2023-01-25T00:34:31.941Z,7.40
2023-01-25T00:34:42.702Z,7.60
2023-01-25T00:34:55.160Z,7.70
2023-01-25T00:35:06.449Z,7.70
2023-01-25T00:35:18.381Z,7.30
2023-01-25T00:35:30.602Z,7.30
2023-01-25T00:35:42.565Z,7.70
2023-01-25T00:35:53.382Z,7.90
2023-01-25T00:36:04.407Z,7.50
2023-01-25T00:36:16.125Z,7.60
2023-01-25T00:36:28.586Z,7.90
2023-01-25T00:36:40.541Z,7.80
2023-01-25T00:36:51.327Z,7.40
2023-01-25T00:37:02.102Z,7.30
2023-01-25T00:37:14.606Z,7.20
2023-01-25T00:37:27.866Z,7.20
2023-01-25T00:37:38.806Z,6.80
2023-01-25T00:37:50.645Z,6.90
2023-01-25T00:38:03.900Z,7.20
2023-01-25T00:38:16.122Z,7.00
2023-01-25T00:38:26.900Z,7.30
2023-01-25T00:38:39.380Z,7.10
2023-01-25T00:38:51.137Z,7.00
2023-01-25T00:39:02.017Z,7.20
2023-01-25T00:39:15.251Z,7.90
2023-01-25T00:39:25.995Z,7.90
2023-01-25T00:39:38.213Z,7.40
2023-01-25T00:39:49.025Z,7.00
2023-01-25T00:40:01.263Z,6.90
2023-01-25T00:40:13.567Z,6.80
2023-01-25T00:40:25.335Z,6.80
2023-01-25T00:40:37.813Z,6.80
2023-01-25T00:40:49.535Z,6.80
2023-01-25T00:41:00.315Z,6.60
2023-01-25T00:41:11.090Z,6.70
2023-01-25T00:41:21.842Z,6.70
2023-01-25T00:41:32.585Z,6.40
2023-01-25T00:41:43.478Z,6.40
2023-01-25T00:41:57.195Z,6.10
2023-01-25T00:42:08.962Z,6.20
2023-01-25T00:42:21.465Z,6.50
2023-01-25T00:42:32.274Z,6.80
2023-01-25T00:42:44.015Z,7.40
2023-01-25T00:42:56.466Z,7.40
2023-01-25T00:43:08.207Z,7.20
2023-01-25T00:43:18.971Z,6.90
2023-01-25T00:43:31.393Z,6.10
2023-01-25T00:43:43.823Z,5.60
2023-01-25T00:43:54.644Z,5.80
2023-01-25T00:44:06.334Z,5.80
2023-01-25T00:44:18.102Z,5.90
2023-01-25T00:44:30.542Z,6.20
2023-01-25T00:44:42.532Z,6.50
2023-01-25T00:44:53.315Z,6.30
2023-01-25T00:45:06.165Z,6.60
2023-01-25T00:45:18.117Z,7.10
2023-01-25T00:45:28.921Z,7.30
2023-01-25T00:45:42.115Z,7.20
2023-01-25T00:45:52.883Z,6.90
2023-01-25T00:46:03.754Z,6.80
2023-01-25T00:46:16.526Z,7.20
2023-01-25T00:46:27.283Z,7.90
2023-01-25T00:46:39.053Z,8.00
2023-01-25T00:46:50.800Z,7.80
2023-01-25T00:47:01.562Z,7.80
2023-01-25T00:47:14.036Z,7.90
2023-01-25T00:47:24.783Z,8.70
2023-01-25T00:47:35.573Z,8.70
2023-01-25T00:47:46.395Z,8.60
2023-01-25T00:47:57.168Z,8.40
2023-01-25T00:48:09.617Z,8.10
2023-01-25T00:48:23.341Z,7.90
2023-01-25T00:48:36.596Z,7.80
2023-01-25T00:48:48.315Z,8.40
2023-01-25T00:48:59.131Z,8.90
2023-01-25T00:49:11.874Z,9.40
2023-01-25T00:49:24.312Z,8.80
2023-01-25T00:49:35.103Z,8.20
2023-01-25T00:49:45.929Z,8.40
2023-01-25T00:49:56.709Z,8.40
2023-01-25T00:50:08.682Z,8.50
2023-01-25T00:50:19.483Z,7.70
2023-01-25T00:50:30.243Z,7.90
2023-01-25T00:50:41.050Z,7.90
2023-01-25T00:50:52.889Z,8.20
2023-01-25T00:51:05.125Z,8.60
2023-01-25T00:51:17.584Z,8.30
2023-01-25T00:51:29.315Z,8.30
2023-01-25T00:51:42.558Z,8.40
2023-01-25T00:51:53.364Z,8.50
2023-01-25T00:52:05.581Z,8.30
2023-01-25T00:52:16.356Z,8.20
2023-01-25T00:52:28.889Z,8.60
2023-01-25T00:52:41.608Z,8.40
2023-01-25T00:52:53.844Z,8.40
2023-01-25T00:53:07.054Z,8.30
2023-01-25T00:53:20.349Z,8.50
2023-01-25T00:53:32.815Z,8.90
2023-01-25T00:53:45.555Z,9.00
2023-01-25T00:53:58.045Z,8.70
2023-01-25T00:54:08.842Z,9.50
2023-01-25T00:54:21.045Z,8.60
2023-01-25T00:54:32.757Z,8.50
2023-01-25T00:54:43.620Z,8.80
2023-01-25T00:54:56.323Z,10.20
2023-01-25T00:55:10.084Z,10.30
2023-01-25T00:55:20.957Z,9.70
2023-01-25T00:55:31.909Z,9.00
2023-01-25T00:55:44.335Z,8.90
2023-01-25T00:55:56.793Z,8.40
2023-01-25T00:56:10.036Z,8.50
2023-01-25T00:56:21.811Z,8.70
2023-01-25T00:56:34.304Z,8.70
2023-01-25T00:56:47.355Z,8.50
2023-01-25T00:57:00.554Z,8.30
2023-01-25T00:57:12.295Z,8.30
2023-01-25T00:57:23.049Z,8.50
2023-01-25T00:57:33.815Z,8.20
2023-01-25T00:57:46.296Z,8.80
2023-01-25T00:57:58.094Z,8.90
2023-01-25T00:58:08.927Z,8.80
2023-01-25T00:58:20.648Z,8.20
2023-01-25T00:58:34.357Z,8.10
2023-01-25T00:58:46.587Z,8.00
2023-01-25T00:58:57.398Z,7.80
2023-01-25T00:59:08.144Z,7.70
2023-01-25T00:59:18.883Z,7.40
2023-01-25T00:59:31.611Z,7.80
2023-01-25T00:59:44.143Z,7.60
2023-01-25T00:59:55.882Z,7.00
2023-01-25T01:00:06.694Z,7.20
2023-01-25T01:00:18.428Z,6.90
2023-01-25T01:00:30.441Z,6.90
2023-01-25T01:00:42.179Z,6.70
2023-01-25T01:00:53.934Z,7.30
2023-01-25T01:01:04.803Z,7.70
2023-01-25T01:01:15.646Z,7.60
2023-01-25T01:01:28.228Z,7.40
2023-01-25T01:01:40.012Z,7.30
2023-01-25T01:01:50.845Z,7.20
2023-01-25T01:02:01.675Z,7.10
2023-01-25T01:02:13.468Z,7.30
2023-01-25T01:02:24.516Z,7.80
2023-01-25T01:02:36.235Z,7.70
2023-01-25T01:02:49.505Z,8.10
2023-01-25T01:03:00.327Z,8.20
2023-01-25T01:03:11.368Z,8.30
2023-01-25T01:03:22.235Z,8.70
2023-01-25T01:03:34.857Z,8.90
2023-01-25T01:03:47.577Z,9.90
2023-01-25T01:03:59.357Z,9.30
2023-01-25T01:04:11.939Z,8.80
2023-01-25T01:04:23.749Z,8.90
2023-01-25T01:04:36.554Z,8.80
2023-01-25T01:04:47.426Z,8.60
2023-01-25T01:04:59.248Z,9.00
2023-01-25T01:05:11.494Z,9.30
2023-01-25T01:05:22.539Z,9.50
2023-01-25T01:05:34.844Z,9.90
2023-01-25T01:05:47.315Z,10.00
2023-01-25T01:05:58.185Z,10.40
2023-01-25T01:06:09.292Z,10.10
2023-01-25T01:06:20.051Z,9.80
2023-01-25T01:06:30.806Z,9.70
2023-01-25T01:06:41.587Z,10.00
2023-01-25T01:06:52.395Z,10.50
2023-01-25T01:07:04.947Z,10.20
2023-01-25T01:07:15.757Z,10.50
2023-01-25T01:07:26.547Z,10.00
2023-01-25T01:07:38.317Z,10.20
2023-01-25T01:07:49.120Z,9.90
2023-01-25T01:07:59.897Z,11.00
2023-01-25T01:08:10.706Z,10.80
2023-01-25T01:08:22.428Z,10.90
2023-01-25T01:08:34.167Z,10.60
2023-01-25T01:08:44.928Z,10.30
2023-01-25T01:08:56.696Z,10.30
2023-01-25T01:09:08.439Z,11.90
2023-01-25T01:09:20.198Z,11.50
2023-01-25T01:09:31.975Z,10.70
2023-01-25T01:09:42.770Z,10.50
2023-01-25T01:09:55.727Z,10.90
2023-01-25T01:10:06.477Z,10.90
2023-01-25T01:10:17.310Z,10.30
2023-01-25T01:10:28.069Z,9.80
2023-01-25T01:10:38.849Z,9.90
2023-01-25T01:10:49.576Z,10.60
2023-01-25T01:11:01.419Z,10.60
2023-01-25T01:11:12.245Z,10.50
2023-01-25T01:11:23.036Z,9.60
2023-01-25T01:11:35.666Z,9.40
2023-01-25T01:11:46.501Z,9.50
2023-01-25T01:11:57.299Z,9.20
2023-01-25T01:12:09.029Z,9.50
2023-01-25T01:12:19.798Z,9.40
2023-01-25T01:12:30.537Z,10.10
2023-01-25T01:12:41.322Z,9.60
2023-01-25T01:12:52.076Z,9.10
2023-01-25T01:13:02.883Z,9.10
2023-01-25T01:13:13.857Z,9.50
2023-01-25T01:13:24.660Z,10.10
2023-01-25T01:13:35.456Z,9.60
2023-01-25T01:13:46.322Z,9.70
2023-01-25T01:13:57.121Z,9.30
2023-01-25T01:14:08.836Z,9.50
2023-01-25T01:14:19.600Z,9.00
2023-01-25T01:14:32.670Z,9.30
2023-01-25T01:14:43.768Z,9.20
2023-01-25T01:14:55.528Z,8.80
2023-01-25T01:15:06.717Z,8.80
2023-01-25T01:15:17.677Z,9.20
2023-01-25T01:15:28.489Z,9.20
2023-01-25T01:15:39.288Z,8.60
2023-01-25T01:15:52.259Z,8.10
2023-01-25T01:16:04.028Z,8.30
2023-01-25T01:16:14.893Z,8.40
2023-01-25T01:16:28.655Z,8.00
2023-01-25T01:16:40.404Z,7.90
2023-01-25T01:16:51.273Z,8.20
2023-01-25T01:17:02.250Z,7.90
2023-01-25T01:17:14.164Z,7.30
2023-01-25T01:17:24.970Z,7.10
2023-01-25T01:17:35.729Z,7.00
2023-01-25T01:17:47.711Z,6.70
2023-01-25T01:17:59.448Z,7.10
2023-01-25T01:18:10.258Z,7.30
2023-01-25T01:18:21.030Z,8.20
2023-01-25T01:18:32.733Z,7.70
2023-01-25T01:18:43.473Z,7.50
2023-01-25T01:18:55.918Z,7.40
2023-01-25T01:19:06.658Z,7.50
2023-01-25T01:19:17.474Z,7.20
2023-01-25T01:19:29.215Z,7.20
2023-01-25T01:19:40.967Z,7.40
2023-01-25T01:19:51.734Z,7.40
2023-01-25T01:20:02.554Z,6.90
2023-01-25T01:20:13.333Z,6.70
2023-01-25T01:20:25.118Z,7.00
2023-01-25T01:20:35.882Z,6.80
2023-01-25T01:20:46.648Z,7.30
2023-01-25T01:20:59.088Z,7.20
2023-01-25T01:21:09.889Z,7.30
2023-01-25T01:21:22.396Z,7.50
2023-01-25T01:21:35.119Z,7.30
2023-01-25T01:21:45.918Z,7.30
2023-01-25T01:21:56.683Z,7.20
2023-01-25T01:22:07.448Z,7.30
2023-01-25T01:22:18.264Z,7.00
2023-01-25T01:22:29.976Z,7.30
2023-01-25T01:22:40.753Z,7.10
2023-01-25T01:22:51.549Z,6.80
2023-01-25T01:23:03.306Z,6.80
2023-01-25T01:23:14.108Z,7.40
2023-01-25T01:23:24.907Z,7.50
2023-01-25T01:23:37.368Z,8.00
2023-01-25T01:23:49.173Z,8.00
2023-01-25T01:24:00.050Z,7.70
2023-01-25T01:24:10.992Z,7.00
2023-01-25T01:24:21.851Z,6.80
2023-01-25T01:24:34.290Z,6.70
2023-01-25T01:24:46.009Z,6.80
2023-01-25T01:24:58.760Z,6.90
2023-01-25T01:25:10.797Z,7.20
2023-01-25T01:25:22.609Z,7.40
2023-01-25T01:25:36.844Z,7.90
2023-01-25T01:25:48.609Z,8.10
2023-01-25T01:26:00.467Z,8.10
2023-01-25T01:26:12.949Z,7.70
2023-01-25T01:26:23.692Z,7.60
2023-01-25T01:26:35.959Z,8.00
2023-01-25T01:26:48.209Z,8.00
2023-01-25T01:26:58.982Z,7.50
2023-01-25T01:27:10.719Z,7.60
2023-01-25T01:27:22.442Z,8.10
2023-01-25T01:27:33.201Z,7.80
2023-01-25T01:27:45.649Z,8.10
2023-01-25T01:27:58.641Z,8.00
2023-01-25T01:28:09.403Z,7.90
2023-01-25T01:28:20.217Z,8.10
2023-01-25T01:28:32.950Z,8.40
2023-01-25T01:28:45.400Z,8.80
2023-01-25T01:28:56.181Z,9.20
2023-01-25T01:29:06.962Z,9.00
2023-01-25T01:29:18.705Z,9.60
2023-01-25T01:29:31.166Z,9.30
2023-01-25T01:29:43.600Z,9.30
2023-01-25T01:29:56.162Z,8.80
2023-01-25T01:30:06.879Z,9.40
2023-01-25T01:30:17.651Z,9.10
2023-01-25T01:30:30.194Z,9.30
2023-01-25T01:30:43.323Z,10.10
2023-01-25T01:30:54.081Z,9.80
2023-01-25T01:31:05.823Z,9.30
2023-01-25T01:31:17.717Z,9.40
2023-01-25T01:31:28.593Z,9.30
2023-01-25T01:31:39.555Z,9.80
2023-01-25T01:31:50.404Z,9.60
2023-01-25T01:32:01.374Z,9.80
2023-01-25T01:32:12.327Z,10.10
2023-01-25T01:32:23.255Z,10.20
2023-01-25T01:32:34.174Z,10.20
2023-01-25T01:32:45.082Z,10.20
2023-01-25T01:32:57.395Z,10.10
2023-01-25T01:33:09.090Z,9.30
2023-01-25T01:33:19.866Z,10.10
2023-01-25T01:33:33.434Z,10.20
2023-01-25T01:33:46.180Z,10.30
2023-01-25T01:33:56.955Z,10.40
2023-01-25T01:34:07.718Z,10.10
2023-01-25T01:34:18.485Z,10.80
2023-01-25T01:34:29.311Z,11.10
2023-01-25T01:34:41.302Z,11.10
2023-01-25T01:34:52.123Z,10.90
2023-01-25T01:35:03.859Z,10.90
2023-01-25T01:35:15.669Z,10.50
2023-01-25T01:35:26.462Z,9.40
2023-01-25T01:35:38.741Z,9.00
2023-01-25T01:35:50.508Z,9.50
2023-01-25T01:36:03.540Z,9.20
2023-01-25T01:36:16.020Z,9.20
2023-01-25T01:36:26.825Z,8.30
2023-01-25T01:36:38.640Z,8.40
2023-01-25T01:36:50.401Z,8.30
2023-01-25T01:37:05.100Z,8.60
2023-01-25T01:37:16.854Z,8.30
2023-01-25T01:37:27.663Z,8.30
2023-01-25T01:37:38.431Z,8.30
2023-01-25T01:37:49.431Z,7.80
2023-01-25T01:38:01.873Z,7.30
2023-01-25T01:38:12.631Z,7.30
2023-01-25T01:38:23.435Z,7.30
2023-01-25T01:38:34.259Z,7.10
2023-01-25T01:38:46.047Z,6.90
2023-01-25T01:38:58.282Z,7.40
2023-01-25T01:39:10.110Z,7.40
2023-01-25T01:39:20.870Z,8.00
2023-01-25T01:39:31.692Z,7.70
2023-01-25T01:39:42.471Z,7.80
2023-01-25T01:39:53.268Z,7.00
2023-01-25T01:40:05.013Z,7.10
2023-01-25T01:40:16.783Z,7.20
2023-01-25T01:40:28.578Z,6.80
2023-01-25T01:40:39.403Z,6.80
2023-01-25T01:40:50.152Z,7.10
2023-01-25T01:41:01.858Z,7.10
2023-01-25T01:41:13.682Z,7.60
2023-01-25T01:41:25.878Z,7.40
2023-01-25T01:41:37.634Z,7.60
2023-01-25T01:41:48.461Z,7.40
2023-01-25T01:41:59.207Z,7.70
2023-01-25T01:42:09.971Z,7.60
2023-01-25T01:42:20.751Z,8.10
2023-01-25T01:42:32.459Z,7.30
2023-01-25T01:42:43.198Z,7.20
2023-01-25T01:42:54.021Z,7.30
2023-01-25T01:43:04.791Z,7.80
2023-01-25T01:43:17.838Z,7.20
2023-01-25T01:43:28.562Z,6.50
2023-01-25T01:43:39.532Z,7.00
2023-01-25T01:43:50.313Z,7.40
2023-01-25T01:44:01.099Z,7.10
2023-01-25T01:44:11.883Z,7.00
2023-01-25T01:44:24.356Z,6.80
2023-01-25T01:44:35.121Z,7.00
2023-01-25T01:44:47.579Z,7.20
2023-01-25T01:45:00.814Z,7.30
2023-01-25T01:45:12.530Z,7.50
2023-01-25T01:45:24.252Z,7.30
2023-01-25T01:45:36.811Z,7.50
2023-01-25T01:45:49.322Z,7.50
2023-01-25T01:46:00.211Z,7.20
2023-01-25T01:46:13.545Z,6.50
2023-01-25T01:46:28.351Z,6.50
2023-01-25T01:46:39.151Z,7.00
2023-01-25T01:46:50.863Z,7.10
2023-01-25T01:47:03.312Z,7.00
2023-01-25T01:47:14.123Z,7.20
2023-01-25T01:47:26.891Z,7.40
2023-01-25T01:47:39.616Z,7.50
2023-01-25T01:47:51.322Z,7.70
2023-01-25T01:48:03.605Z,7.40
2023-01-25T01:48:15.324Z,7.00
2023-01-25T01:48:28.553Z,7.40
2023-01-25T01:48:39.346Z,7.80
2023-01-25T01:48:50.122Z,7.60
2023-01-25T01:49:00.899Z,7.30
2023-01-25T01:49:12.663Z,7.40
2023-01-25T01:49:25.147Z,7.60
2023-01-25T01:49:37.870Z,7.70
2023-01-25T01:49:48.654Z,7.20
2023-01-25T01:50:00.442Z,7.40
2023-01-25T01:50:12.141Z,7.40
2023-01-25T01:50:23.112Z,7.30
2023-01-25T01:50:36.841Z,7.90
2023-01-25T01:50:47.674Z,8.20
2023-01-25T01:50:58.452Z,7.80
2023-01-25T01:51:09.247Z,7.00
2023-01-25T01:51:21.682Z,6.80
2023-01-25T01:51:34.101Z,7.30
2023-01-25T01:51:46.378Z,7.30
2023-01-25T01:51:59.603Z,7.20
2023-01-25T01:52:11.376Z,7.70
2023-01-25T01:52:23.823Z,7.90
2023-01-25T01:52:36.559Z,7.50
2023-01-25T01:52:47.353Z,7.30
2023-01-25T01:52:58.154Z,7.40
2023-01-25T01:53:08.907Z,7.70
2023-01-25T01:53:19.657Z,7.90
2023-01-25T01:53:31.896Z,7.60
2023-01-25T01:53:44.375Z,7.50
2023-01-25T01:53:56.105Z,7.30
2023-01-25T01:54:06.955Z,7.40
2023-01-25T01:54:18.684Z,8.20
2023-01-25T01:54:31.395Z,8.10
2023-01-25T01:54:43.114Z,8.50
2023-01-25T01:54:55.574Z,8.20
2023-01-25T01:55:06.588Z,8.40
2023-01-25T01:55:18.442Z,8.90
2023-01-25T01:55:29.223Z,8.70
2023-01-25T01:55:42.254Z,8.30
2023-01-25T01:55:53.027Z,8.30
2023-01-25T01:56:04.811Z,8.10
2023-01-25T01:56:15.654Z,8.40
2023-01-25T01:56:26.547Z,8.60
2023-01-25T01:56:39.281Z,8.40
2023-01-25T01:56:53.044Z,7.90
2023-01-25T01:57:05.497Z,8.20
2023-01-25T01:57:16.244Z,8.30
2023-01-25T01:57:27.025Z,8.20
2023-01-25T01:57:37.853Z,8.00
2023-01-25T01:57:49.652Z,8.00
2023-01-25T01:58:00.442Z,8.40
2023-01-25T01:58:11.197Z,8.40
2023-01-25T01:58:22.949Z,8.60
2023-01-25T01:58:33.796Z,8.60
2023-01-25T01:58:46.067Z,8.70
2023-01-25T01:58:56.845Z,8.30
2023-01-25T01:59:07.567Z,8.20
2023-01-25T01:59:18.334Z,8.40
2023-01-25T01:59:29.138Z,8.80
2023-01-25T01:59:39.923Z,8.40
2023-01-25T01:59:51.703Z,8.50
2023-01-25T02:00:02.494Z,7.70
2023-01-25T02:00:14.273Z,7.80
2023-01-25T02:00:25.036Z,7.70
2023-01-25T02:00:36.884Z,8.10
2023-01-25T02:00:47.655Z,8.50
2023-01-25T02:00:58.424Z,8.80
2023-01-25T02:01:09.266Z,8.70
2023-01-25T02:01:20.193Z,8.20
2023-01-25T02:01:31.166Z,8.40
2023-01-25T02:01:44.981Z,8.60
2023-01-25T02:01:55.839Z,8.70
2023-01-25T02:02:07.688Z,8.70
2023-01-25T02:02:19.453Z,8.80
2023-01-25T02:02:30.288Z,8.10
2023-01-25T02:02:42.948Z,8.30
2023-01-25T02:02:53.850Z,8.00
2023-01-25T02:03:04.705Z,8.40
2023-01-25T02:03:17.447Z,8.20
2023-01-25T02:03:28.228Z,8.10
2023-01-25T02:03:40.559Z,8.40
2023-01-25T02:03:52.319Z,8.40
2023-01-25T02:04:06.537Z,8.00
2023-01-25T02:04:18.348Z,8.30
2023-01-25T02:04:30.099Z,8.30
2023-01-25T02:04:41.925Z,8.40
2023-01-25T02:04:53.743Z,8.30
2023-01-25T02:05:06.386Z,7.50
2023-01-25T02:05:17.275Z,7.50
2023-01-25T02:05:28.096Z,7.80
2023-01-25T02:05:40.568Z,8.30
2023-01-25T02:05:51.322Z,9.00
2023-01-25T02:06:04.069Z,9.00
2023-01-25T02:06:17.072Z,8.50
2023-01-25T02:06:30.040Z,8.50
2023-01-25T02:06:42.030Z,8.60
2023-01-25T02:06:52.804Z,8.70
2023-01-25T02:07:06.085Z,8.10
2023-01-25T02:07:17.825Z,7.70
2023-01-25T02:07:29.457Z,8.00
2023-01-25T02:07:41.906Z,8.50
2023-01-25T02:07:54.327Z,8.70
2023-01-25T02:08:06.135Z,8.20
2023-01-25T02:08:18.095Z,8.10
2023-01-25T02:08:29.845Z,8.00
2023-01-25T02:08:41.617Z,8.40
2023-01-25T02:08:53.376Z,8.40
2023-01-25T02:09:08.139Z,8.40
2023-01-25T02:09:18.934Z,8.30
2023-01-25T02:09:30.678Z,8.10
2023-01-25T02:09:42.518Z,8.00
2023-01-25T02:09:53.287Z,7.60
2023-01-25T02:10:05.513Z,7.90
2023-01-25T02:10:19.246Z,8.10
2023-01-25T02:10:32.427Z,8.50
2023-01-25T02:10:43.196Z,9.20
2023-01-25T02:10:53.972Z,9.50
2023-01-25T02:11:04.761Z,9.60
2023-01-25T02:11:17.204Z,9.30
2023-01-25T02:11:27.976Z,8.70
2023-01-25T02:11:40.198Z,8.70
2023-01-25T02:11:52.662Z,8.60
2023-01-25T02:12:05.875Z,9.20
2023-01-25T02:12:17.642Z,9.30
2023-01-25T02:12:30.867Z,10.10
2023-01-25T02:12:41.676Z,10.20
2023-01-25T02:12:53.404Z,10.20
2023-01-25T02:13:05.613Z,10.30
2023-01-25T02:13:17.378Z,9.80
2023-01-25T02:13:31.120Z,9.10
2023-01-25T02:13:41.908Z,8.50
2023-01-25T02:13:54.386Z,8.70
2023-01-25T02:14:05.171Z,8.60
2023-01-25T02:14:16.978Z,8.70
2023-01-25T02:14:27.775Z,8.00
2023-01-25T02:14:40.280Z,8.10
2023-01-25T02:14:51.091Z,8.30
2023-01-25T02:15:01.860Z,8.40
2023-01-25T02:15:14.840Z,8.00
2023-01-25T02:15:26.653Z,8.40
2023-01-25T02:15:37.467Z,9.40
2023-01-25T02:15:49.927Z,9.60
2023-01-25T02:16:00.747Z,8.90
2023-01-25T02:16:11.628Z,8.70
2023-01-25T02:16:24.191Z,8.50
2023-01-25T02:16:36.634Z,7.70
2023-01-25T02:16:48.407Z,7.50
2023-01-25T02:17:00.925Z,7.90
2023-01-25T02:17:12.678Z,8.20
2023-01-25T02:17:23.799Z,8.30
2023-01-25T02:17:36.673Z,8.00
2023-01-25T02:17:48.398Z,7.80
2023-01-25T02:18:00.848Z,7.70
2023-01-25T02:18:11.667Z,8.30
2023-01-25T02:18:24.278Z,8.40
2023-01-25T02:18:36.016Z,8.40
2023-01-25T02:18:46.841Z,8.50
2023-01-25T02:18:57.697Z,8.40
2023-01-25T02:19:08.498Z,8.70
2023-01-25T02:19:20.192Z,8.90
2023-01-25T02:19:31.048Z,8.80
2023-01-25T02:19:43.794Z,8.60
2023-01-25T02:19:55.497Z,9.10
2023-01-25T02:20:06.329Z,9.00
2023-01-25T02:20:18.534Z,8.80
2023-01-25T02:20:30.266Z,8.20
2023-01-25T02:20:42.715Z,8.10
2023-01-25T02:20:53.509Z,8.10
2023-01-25T02:21:05.250Z,8.40
2023-01-25T02:21:17.723Z,8.10
2023-01-25T02:21:28.489Z,8.40
2023-01-25T02:21:39.316Z,9.20
2023-01-25T02:21:50.071Z,9.60
2023-01-25T02:22:00.869Z,9.40
2023-01-25T02:22:13.343Z,9.50
2023-01-25T02:22:26.088Z,9.70
2023-01-25T02:22:39.338Z,9.70
2023-01-25T02:22:50.178Z,10.30
2023-01-25T02:23:00.995Z,9.70
2023-01-25T02:23:13.458Z,9.00
2023-01-25T02:23:24.189Z,8.80
2023-01-25T02:23:34.988Z,9.60
2023-01-25T02:23:48.054Z,9.80
2023-01-25T02:23:58.916Z,9.30
2023-01-25T02:24:09.814Z,9.50
2023-01-25T02:24:20.629Z,9.70
2023-01-25T02:24:32.427Z,9.80
2023-01-25T02:24:44.940Z,9.40
2023-01-25T02:24:58.177Z,8.80
2023-01-25T02:25:11.040Z,8.90
2023-01-25T02:25:23.545Z,9.30
2023-01-25T02:25:36.018Z,8.20
2023-01-25T02:25:48.655Z,7.40
2023-01-25T02:26:00.395Z,7.50
2023-01-25T02:26:12.852Z,8.40
2023-01-25T02:26:23.622Z,8.50
2023-01-25T02:26:34.440Z,9.00
2023-01-25T02:26:45.233Z,9.30
2023-01-25T02:26:56.019Z,9.20
2023-01-25T02:27:08.978Z,9.10
2023-01-25T02:27:21.428Z,8.90
2023-01-25T02:27:33.177Z,9.20
2023-01-25T02:27:46.429Z,9.10
2023-01-25T02:27:59.411Z,8.40
2023-01-25T02:28:10.929Z,8.90
2023-01-25T02:28:21.740Z,8.70
2023-01-25T02:28:32.561Z,8.70
2023-01-25T02:28:44.328Z,8.00
2023-01-25T02:28:55.186Z,7.60
2023-01-25T02:29:06.963Z,7.90
2023-01-25T02:29:17.793Z,8.30
2023-01-25T02:29:28.629Z,8.40
2023-01-25T02:29:39.506Z,8.80
2023-01-25T02:29:51.988Z,8.70
2023-01-25T02:30:03.994Z,8.90
2023-01-25T02:30:17.112Z,9.20
2023-01-25T02:30:28.921Z,8.70
2023-01-25T02:30:40.669Z,9.00
2023-01-25T02:30:53.408Z,9.50
2023-01-25T02:31:04.298Z,9.40
2023-01-25T02:31:16.937Z,8.90
2023-01-25T02:31:28.848Z,8.50
2023-01-25T02:31:39.783Z,8.20
2023-01-25T02:31:51.740Z,8.10
2023-01-25T02:32:03.615Z,8.60
2023-01-25T02:32:16.178Z,8.40
2023-01-25T02:32:26.951Z,8.60
2023-01-25T02:32:39.438Z,8.00
2023-01-25T02:32:51.230Z,7.20
2023-01-25T02:33:02.938Z,7.50
2023-01-25T02:33:15.173Z,7.80
2023-01-25T02:33:28.124Z,7.90
2023-01-25T02:33:38.888Z,7.50
2023-01-25T02:33:52.108Z,7.60
2023-01-25T02:34:04.595Z,7.80
2023-01-25T02:34:15.370Z,7.40
2023-01-25T02:34:27.862Z,7.90
2023-01-25T02:34:38.640Z,8.20
2023-01-25T02:34:49.408Z,8.10
2023-01-25T02:35:01.170Z,8.20
2023-01-25T02:35:13.633Z,8.60